createdAt,value
2023-04-02T00:03:54.216Z,76.83
2023-04-02T00:08:49.030Z,76.85
2023-04-02T00:13:46.831Z,77.10
2023-04-02T00:18:46.857Z,77.00
2023-04-02T00:23:41.999Z,76.97
2023-04-02T00:28:34.832Z,77.33
2023-04-02T00:33:31.589Z,77.21
2023-04-02T00:38:30.917Z,77.55
2023-04-02T00:43:28.020Z,77.62
2023-04-02T00:49:02.539Z,77.94
2023-04-02T00:53:59.515Z,77.60
2023-04-02T00:58:54.636Z,77.72
2023-04-02T01:03:59.960Z,77.57
2023-04-02T01:09:08.167Z,77.73
2023-04-02T01:14:27.066Z,77.59
2023-04-02T01:19:42.512Z,77.64
2023-04-02T01:25:04.382Z,77.59
2023-04-02T01:29:59.812Z,77.59
2023-04-02T01:34:53.671Z,77.43
2023-04-02T01:40:07.686Z,77.43
2023-04-02T01:45:12.707Z,77.28
2023-04-02T01:50:19.622Z,77.39
2023-04-02T01:55:15.603Z,77.26
2023-04-02T02:00:13.532Z,77.41
2023-04-02T02:05:13.822Z,77.48
2023-04-02T02:10:08.235Z,77.18
2023-04-02T02:15:01.280Z,77.22
2023-04-02T02:19:58.487Z,77.30
2023-04-02T02:24:51.496Z,77.34
2023-04-02T02:29:48.353Z,77.23
2023-04-02T02:34:53.866Z,77.33
2023-04-02T02:39:53.096Z,77.49
2023-04-02T02:44:50.005Z,77.54
2023-04-02T02:49:55.393Z,77.35
2023-04-02T02:54:54.986Z,77.48
2023-04-02T02:59:51.864Z,77.65
2023-04-02T03:04:49.346Z,77.88
2023-04-02T03:10:01.713Z,77.89
2023-04-02T03:15:07.507Z,77.91
2023-04-02T03:20:14.745Z,78.01
2023-04-02T03:25:23.810Z,78.05
2023-04-02T03:30:38.727Z,78.09
2023-04-02T03:35:38.385Z,78.29
2023-04-02T03:41:06.816Z,78.12
2023-04-02T03:46:35.537Z,78.09
2023-04-02T03:51:31.787Z,78.09
2023-04-02T03:56:40.166Z,77.99
2023-04-02T04:01:45.256Z,78.05
2023-04-02T04:06:47.598Z,77.89
2023-04-02T04:11:47.071Z,77.94
2023-04-02T04:16:47.584Z,77.91
2023-04-02T04:21:45.472Z,77.96
2023-04-02T04:27:36.117Z,77.85
2023-04-02T04:32:34.542Z,77.77
2023-04-02T04:37:42.694Z,77.92
2023-04-02T04:42:39.564Z,77.86
2023-04-02T04:47:42.799Z,77.83
2023-04-02T04:52:40.051Z,77.81
2023-04-02T04:57:37.586Z,77.82
2023-04-02T05:02:47.095Z,77.48
2023-04-02T05:07:50.774Z,77.52
2023-04-02T05:12:51.022Z,77.40
2023-04-02T05:18:22.075Z,77.51
2023-04-02T05:23:30.194Z,77.46
2023-04-02T05:28:36.915Z,77.43
2023-04-02T05:33:32.629Z,77.41
2023-04-02T05:38:33.465Z,77.50
2023-04-02T05:43:27.928Z,77.40
2023-04-02T05:48:43.451Z,77.60
2023-04-02T05:53:41.921Z,77.66
2023-04-02T05:58:47.436Z,77.54
2023-04-02T06:03:49.110Z,77.29
2023-04-02T06:08:56.484Z,77.19
2023-04-02T06:13:51.113Z,77.03
2023-04-02T06:18:47.111Z,77.00
2023-04-02T06:23:46.876Z,77.02
2023-04-02T06:28:50.274Z,76.99
2023-04-02T06:33:44.797Z,76.92
2023-04-02T06:38:41.136Z,76.86
2023-04-02T06:43:42.431Z,77.03
2023-04-02T06:49:02.542Z,77.00
2023-04-02T06:53:56.301Z,76.82
2023-04-02T06:58:49.306Z,76.50
2023-04-02T07:03:43.254Z,76.65
2023-04-02T07:08:52.012Z,76.83
2023-04-02T07:13:46.479Z,76.74
2023-04-02T07:18:39.649Z,76.53
2023-04-02T07:23:32.644Z,76.35
2023-04-02T07:28:25.960Z,76.44
2023-04-02T07:33:21.795Z,76.34
2023-04-02T07:38:14.754Z,76.09
2023-04-02T07:43:08.121Z,75.89
2023-04-02T07:48:08.704Z,75.84
2023-04-02T07:53:02.105Z,75.84
2023-04-02T07:57:57.798Z,75.73
2023-04-02T08:02:51.666Z,75.40
2023-04-02T08:07:45.697Z,74.99
2023-04-02T08:12:39.393Z,74.70
2023-04-02T08:17:34.121Z,74.47
2023-04-02T08:22:27.915Z,74.41
2023-04-02T08:27:20.848Z,74.48
2023-04-02T08:32:16.380Z,74.02
2023-04-02T08:37:12.964Z,73.96
2023-04-02T08:42:19.958Z,73.84
2023-04-02T08:47:15.689Z,73.49
2023-04-02T08:52:22.111Z,73.74
2023-04-02T08:57:28.802Z,73.41
2023-04-02T09:02:28.351Z,73.77
2023-04-02T09:07:21.937Z,73.80
2023-04-02T09:12:21.665Z,73.67
2023-04-02T09:17:22.929Z,73.47
2023-04-02T09:22:23.191Z,73.55
2023-04-02T09:27:20.539Z,73.73
2023-04-02T09:32:36.644Z,73.73
2023-04-02T09:37:29.594Z,73.48
2023-04-02T09:42:35.264Z,73.54
2023-04-02T09:47:28.979Z,73.48
2023-04-02T09:52:28.710Z,73.44
2023-04-02T09:57:28.164Z,73.67
2023-04-02T10:02:31.168Z,73.65
2023-04-02T10:07:41.459Z,73.81
2023-04-02T10:12:41.625Z,73.79
2023-04-02T10:17:38.723Z,73.53
2023-04-02T10:22:31.682Z,73.37
2023-04-02T10:27:31.379Z,73.14
2023-04-02T10:32:39.298Z,73.12
2023-04-02T10:37:35.008Z,73.36
2023-04-02T10:42:53.973Z,73.25
2023-04-02T10:48:19.551Z,73.22
2023-04-02T10:53:22.862Z,73.15
2023-04-02T10:58:26.664Z,72.93
2023-04-02T11:03:58.824Z,72.67
2023-04-02T11:09:02.375Z,72.90
2023-04-02T11:14:13.794Z,73.11
2023-04-02T11:19:15.967Z,73.17
2023-04-02T11:24:32.764Z,73.32
2023-04-02T11:29:29.802Z,73.31
2023-04-02T11:35:05.143Z,73.63
2023-04-02T11:40:12.232Z,73.80
2023-04-02T11:45:23.375Z,74.09
2023-04-02T11:50:30.413Z,74.55
2023-04-02T11:55:27.446Z,74.53
2023-04-02T12:00:46.451Z,74.70
2023-04-02T12:05:54.714Z,74.89
2023-04-02T12:10:55.762Z,75.06
2023-04-02T12:15:50.539Z,75.27
2023-04-02T12:20:48.744Z,75.45
2023-04-02T12:26:14.417Z,75.67
2023-04-02T12:31:10.351Z,76.07
2023-04-02T12:36:04.211Z,76.12
2023-04-02T12:41:03.674Z,76.08
2023-04-02T12:46:02.116Z,75.75
2023-04-02T12:50:56.305Z,75.59
2023-04-02T12:55:51.467Z,75.63
2023-04-02T13:00:44.332Z,75.61
2023-04-02T13:05:51.011Z,76.05
2023-04-02T13:10:44.700Z,76.24
2023-04-02T13:15:37.939Z,76.23
2023-04-02T13:20:33.968Z,76.32
2023-04-02T13:25:33.441Z,76.34
2023-04-02T13:30:29.396Z,76.53
2023-04-02T13:35:23.252Z,76.25
2023-04-02T13:40:19.307Z,76.24
2023-04-02T13:45:41.413Z,76.09
2023-04-02T13:50:37.448Z,76.03
2023-04-02T13:55:35.920Z,76.33
2023-04-02T14:00:28.852Z,76.52
2023-04-02T14:05:40.724Z,76.57
2023-04-02T14:11:06.012Z,76.12
2023-04-02T14:16:29.257Z,75.98
2023-04-02T14:22:13.161Z,76.14
2023-04-02T14:27:25.107Z,76.50
2023-04-02T14:32:29.792Z,76.65
2023-04-02T14:37:43.869Z,76.54
2023-04-02T14:42:52.030Z,76.62
2023-04-02T14:47:56.674Z,77.08
2023-04-02T14:52:58.060Z,77.01
2023-04-02T14:57:53.927Z,76.97
2023-04-02T15:02:53.058Z,77.09
2023-04-02T15:08:16.595Z,77.02
2023-04-02T15:13:20.331Z,77.19
2023-04-02T15:18:20.073Z,77.35
2023-04-02T15:23:20.670Z,77.31
2023-04-02T15:28:39.297Z,77.73
2023-04-02T15:33:35.882Z,77.68
2023-04-02T15:38:43.858Z,77.63
2023-04-02T15:43:39.660Z,77.74
2023-04-02T15:48:49.513Z,77.89
2023-04-02T15:54:00.884Z,77.94
2023-04-02T15:59:18.979Z,78.18
2023-04-02T16:04:20.639Z,78.04
2023-04-02T16:09:30.867Z,78.21
2023-04-02T16:14:34.167Z,78.37
2023-04-02T16:19:36.364Z,78.28
2023-04-02T16:24:29.297Z,78.44
2023-04-02T16:30:09.907Z,78.33
2023-04-02T16:35:43.118Z,78.76
2023-04-02T16:40:57.226Z,79.03
2023-04-02T16:46:07.202Z,79.09
2023-04-02T16:51:30.182Z,79.06
2023-04-02T16:56:36.738Z,79.30
2023-04-02T17:01:49.997Z,79.56
2023-04-02T17:06:45.650Z,79.64
2023-04-02T17:11:46.482Z,79.60
2023-04-02T17:16:45.102Z,79.82
2023-04-02T17:21:40.728Z,79.73
2023-04-02T17:26:38.046Z,80.04
2023-04-02T17:31:35.896Z,80.00
2023-04-02T17:36:30.016Z,80.13
2023-04-02T17:41:26.837Z,80.16
2023-04-02T17:46:22.686Z,80.03
2023-04-02T17:51:21.772Z,80.30
2023-04-02T17:56:43.389Z,80.43
2023-04-02T18:02:01.639Z,80.37
2023-04-02T18:07:25.129Z,80.44
2023-04-02T18:12:31.477Z,80.34
2023-04-02T18:17:48.201Z,80.49
2023-04-02T18:22:56.522Z,80.45
2023-04-02T18:28:10.032Z,80.42
2023-04-02T18:33:32.322Z,80.36
2023-04-02T18:38:25.108Z,80.29
2023-04-02T18:43:19.026Z,80.16
2023-04-02T18:48:35.479Z,80.14
2023-04-02T18:53:33.931Z,79.93
2023-04-02T18:58:35.257Z,79.98
2023-04-02T19:03:34.071Z,80.01
2023-04-02T19:08:51.848Z,79.98
2023-04-02T19:13:45.891Z,80.00
2023-04-02T19:18:51.116Z,80.07
2023-04-02T19:24:13.927Z,80.21
2023-04-02T19:29:42.475Z,80.21
2023-04-02T19:34:47.968Z,80.01
2023-04-02T19:40:09.518Z,79.81
2023-04-02T19:45:04.033Z,79.45
2023-04-02T19:49:57.545Z,79.26
2023-04-02T19:54:50.398Z,79.22
2023-04-02T19:59:43.282Z,78.42
2023-04-02T20:04:36.407Z,78.16
2023-04-02T20:09:29.924Z,78.04
2023-04-02T20:14:22.893Z,77.55
2023-04-02T20:19:15.802Z,77.63
2023-04-02T20:24:09.737Z,77.50
2023-04-02T20:29:02.680Z,77.85
2023-04-02T20:33:57.576Z,78.13
2023-04-02T20:38:51.608Z,78.12
2023-04-02T20:43:44.403Z,78.30
2023-04-02T20:48:37.885Z,78.27
2023-04-02T20:53:33.745Z,78.91
2023-04-02T20:58:26.612Z,79.34
2023-04-02T21:03:19.837Z,79.42
2023-04-02T21:08:13.775Z,79.38
2023-04-02T21:13:06.832Z,79.41
2023-04-02T21:17:59.992Z,79.52
2023-04-02T21:22:52.838Z,79.43
2023-04-02T21:27:46.042Z,79.38
2023-04-02T21:32:38.982Z,79.21
2023-04-02T21:37:32.154Z,78.90
2023-04-02T21:42:26.038Z,78.30
2023-04-02T21:47:18.907Z,77.26
2023-04-02T21:52:11.970Z,76.61
2023-04-02T21:57:05.562Z,75.90
2023-04-02T22:01:58.510Z,74.83
2023-04-02T22:06:53.275Z,73.92
2023-04-02T22:11:59.549Z,73.25
2023-04-02T22:17:25.209Z,72.23
2023-04-02T22:22:18.062Z,72.01
2023-04-02T22:27:10.914Z,71.99
2023-04-02T22:32:03.710Z,71.02
2023-04-02T22:36:57.332Z,71.08
2023-04-02T22:41:50.748Z,70.44
2023-04-02T22:46:47.816Z,70.66
2023-04-02T22:51:41.090Z,70.40
2023-04-02T22:56:35.505Z,70.27
2023-04-02T23:01:32.371Z,69.54
2023-04-02T23:06:26.565Z,69.13
2023-04-02T23:11:23.712Z,68.76
2023-04-02T23:16:17.824Z,69.13
2023-04-02T23:21:11.799Z,68.74
2023-04-02T23:26:07.366Z,68.27
2023-04-02T23:31:02.051Z,67.84
2023-04-02T23:35:55.048Z,67.94
2023-04-02T23:40:48.781Z,67.68
2023-04-02T23:45:41.572Z,67.34
2023-04-02T23:50:34.817Z,67.48
2023-04-02T23:55:28.205Z,67.37
